Time;durP1;ratioP1;P1;durP2;ratioP2;P2;SDS_P1;SDS_P2;PMS_P1;PMS_P2;Temp;Humidity;BMP_temperature;BMP_pressure;BME280_temperature;BME280_humidity;BME280_pressure;Samples;Min_cycle;Max_cycle;Signal;HPM_P1;HPM_P2
2020/12/22 00:00:37;;;;;;;2.77;2.57;;;10.80;99.90;;;;;;4944999;28;20473;-92
2020/12/22 00:03:10;;;;;;;2.40;2.20;;;10.80;99.90;;;;;;4941965;28;20458;-91
2020/12/22 00:05:39;;;;;;;3.33;1.80;;;10.80;99.90;;;;;;4953626;29;20926;-92
2020/12/22 00:08:11;;;;;;;4.20;2.60;;;10.80;99.90;;;;;;4958057;28;20468;-91
2020/12/22 00:10:56;;;;;;;;;;;;;;;;;;;;;
2020/12/22 00:13:28;;;;;;;2.77;2.37;;;10.90;99.90;;;;;;4945766;28;20448;-91
2020/12/22 00:15:55;;;;;;;2.43;2.23;;;10.90;99.90;;;;;;4941717;29;20511;-91
2020/12/22 00:18:22;;;;;;;1.90;1.67;;;11.00;99.90;;;;;;4939321;28;20456;-93
2020/12/22 00:20:51;;;;;;;2.40;1.93;;;11.00;99.90;;;;;;4946197;28;20468;-92
2020/12/22 00:23:17;;;;;;;2.10;1.87;;;11.00;99.90;;;;;;4946376;28;20458;-92
2020/12/22 00:25:48;;;;;;;3.17;2.90;;;11.10;99.90;;;;;;4943861;28;20537;-92
2020/12/22 00:28:15;;;;;;;2.80;1.73;;;11.10;99.90;;;;;;4941146;29;20446;-92
2020/12/22 00:30:43;;;;;;;5.27;2.10;;;11.10;99.90;;;;;;4943233;28;20478;-91
2020/12/22 00:33:12;;;;;;;2.63;2.10;;;11.10;99.90;;;;;;4946477;28;20446;-92
2020/12/22 00:35:38;;;;;;;2.00;1.60;;;11.10;99.90;;;;;;4942148;28;20457;-92
2020/12/22 00:38:05;;;;;;;2.50;1.50;;;11.10;99.90;;;;;;4939088;28;20449;-92
2020/12/22 00:40:35;;;;;;;2.30;1.67;;;11.20;99.90;;;;;;4942198;28;20999;-92
2020/12/22 00:43:03;;;;;;;2.23;2.03;;;11.20;99.90;;;;;;4945970;28;21032;-90
2020/12/22 00:45:30;;;;;;;6.73;2.80;;;11.20;99.90;;;;;;4943341;28;20495;-91
2020/12/22 00:48:01;;;;;;;1.67;1.57;;;11.20;99.90;;;;;;4947554;28;20452;-91
2020/12/22 00:50:29;;;;;;;2.33;2.03;;;11.20;99.90;;;;;;4941475;28;20473;-94
2020/12/22 00:53:01;;;;;;;2.50;2.30;;;11.30;99.90;;;;;;4942459;29;20456;-91
2020/12/22 00:55:27;;;;;;;2.20;1.73;;;11.30;99.90;;;;;;4943337;29;20441;-91
2020/12/22 00:58:03;;;;;;;2.07;1.90;;;11.30;99.90;;;;;;4942596;28;20445;-92
2020/12/22 01:00:38;;;;;;;2.00;1.60;;;11.40;99.90;;;;;;4941908;28;20538;-92
2020/12/22 01:03:04;;;;;;;1.90;1.70;;;11.50;99.90;;;;;;4947533;28;20546;-91
2020/12/22 01:05:34;;;;;;;2.77;1.97;;;11.50;99.90;;;;;;4942492;29;20485;-91
2020/12/22 01:08:11;;;;;;;;;;;;;;;;;;;;;
2020/12/22 01:10:42;;;;;;;1.30;1.20;;;11.60;99.90;;;;;;4936188;28;20461;-92
2020/12/22 01:13:08;;;;;;;2.33;1.50;;;11.50;99.90;;;;;;4944450;28;20494;-92
2020/12/22 01:15:35;;;;;;;1.37;1.27;;;11.50;99.90;;;;;;4949022;29;20463;-91
2020/12/22 01:18:01;;;;;;;2.10;0.90;;;11.60;99.90;;;;;;4950283;29;20443;-91
2020/12/22 01:20:27;;;;;;;1.00;1.00;;;11.70;99.90;;;;;;4944444;28;20849;-91
2020/12/22 01:22:55;;;;;;;2.50;0.97;;;11.60;99.90;;;;;;4943715;29;20453;-92
2020/12/22 01:25:21;;;;;;;1.77;1.67;;;11.60;99.90;;;;;;4942809;28;20503;-92
2020/12/22 01:27:47;;;;;;;1.50;0.97;;;11.60;99.90;;;;;;4942787;28;20449;-92
2020/12/22 01:30:14;;;;;;;1.03;0.93;;;11.70;99.90;;;;;;4942994;28;20454;-93
2020/12/22 01:32:40;;;;;;;1.60;1.03;;;11.70;99.90;;;;;;4945042;28;20478;-92
2020/12/22 01:35:09;;;;;;;1.77;0.80;;;11.80;99.90;;;;;;4941783;29;20442;-91
2020/12/22 01:37:37;;;;;;;1.47;1.37;;;11.80;99.90;;;;;;4945797;28;20505;-92
2020/12/22 01:40:06;;;;;;;1.40;1.30;;;11.80;99.90;;;;;;4942764;28;20489;-93
2020/12/22 01:42:32;;;;;;;3.57;1.23;;;11.80;99.90;;;;;;4945310;28;20469;-92
2020/12/22 01:44:59;;;;;;;0.93;0.80;;;11.80;99.90;;;;;;4943186;28;20915;-93
2020/12/22 01:47:30;;;;;;;2.17;0.90;;;11.80;99.90;;;;;;4946562;29;20513;-91
2020/12/22 01:49:57;;;;;;;1.43;1.33;;;11.80;99.90;;;;;;4943731;28;20495;-91
2020/12/22 01:52:23;;;;;;;1.60;1.30;;;11.80;99.90;;;;;;4943538;28;21065;-91
2020/12/22 01:54:49;;;;;;;0.80;0.80;;;11.80;99.90;;;;;;4944308;29;20962;-91
2020/12/22 01:57:17;;;;;;;5.63;1.20;;;11.90;99.90;;;;;;4941673;28;20453;-92
2020/12/22 01:59:43;;;;;;;0.90;0.80;;;11.80;99.90;;;;;;4944585;29;20447;-91
2020/12/22 02:02:09;;;;;;;0.80;0.73;;;11.90;99.90;;;;;;4947275;28;20533;-91
2020/12/22 02:04:36;;;;;;;2.90;0.93;;;11.90;99.90;;;;;;4946516;29;20820;-91
2020/12/22 02:07:03;;;;;;;0.83;0.73;;;11.90;99.90;;;;;;4945872;28;20538;-91
2020/12/22 02:09:29;;;;;;;0.90;0.70;;;12.00;99.90;;;;;;4947450;29;21063;-93
2020/12/22 02:11:55;;;;;;;1.33;0.70;;;12.00;99.90;;;;;;4950869;28;20466;-92
2020/12/22 02:14:22;;;;;;;0.70;0.70;;;12.00;99.90;;;;;;4945960;29;20466;-92
2020/12/22 02:16:49;;;;;;;0.60;0.53;;;12.10;99.90;;;;;;4955929;29;20449;-91
2020/12/22 02:19:16;;;;;;;0.87;0.60;;;12.10;99.90;;;;;;4967117;28;20436;-91
2020/12/22 02:21:45;;;;;;;0.83;0.60;;;12.10;99.90;;;;;;4955012;28;20976;-92
2020/12/22 02:24:15;;;;;;;0.80;0.60;;;12.10;99.90;;;;;;4947022;28;20472;-91
2020/12/22 02:26:42;;;;;;;0.70;0.50;;;12.20;99.90;;;;;;4949632;29;21013;-91
2020/12/22 02:29:08;;;;;;;0.63;0.40;;;12.20;99.90;;;;;;4949740;29;20496;-91
2020/12/22 02:31:34;;;;;;;0.80;0.70;;;12.30;99.90;;;;;;4944093;29;20479;-91
2020/12/22 02:34:02;;;;;;;0.70;0.50;;;12.30;99.90;;;;;;4946218;28;20444;-91
2020/12/22 02:36:28;;;;;;;1.10;0.63;;;12.20;99.90;;;;;;4946738;28;20452;-92
2020/12/22 02:38:56;;;;;;;0.90;0.50;;;12.20;99.90;;;;;;4946227;29;20437;-93
2020/12/22 02:41:22;;;;;;;1.27;0.70;;;12.30;99.90;;;;;;4947971;28;20476;-91
2020/12/22 02:43:48;;;;;;;0.70;0.50;;;12.30;99.90;;;;;;4942799;29;20565;-92
2020/12/22 02:46:15;;;;;;;1.20;0.40;;;12.30;99.90;;;;;;4944807;28;20453;-92
2020/12/22 02:48:41;;;;;;;0.90;0.60;;;12.40;99.90;;;;;;4947606;28;21007;-92
2020/12/22 02:51:07;;;;;;;0.90;0.73;;;12.40;99.90;;;;;;4945615;29;20469;-92
2020/12/22 02:53:36;;;;;;;1.00;0.80;;;12.30;99.90;;;;;;4946724;28;20972;-92
2020/12/22 02:56:08;;;;;;;0.60;0.50;;;12.30;99.90;;;;;;4946955;28;20454;-91
2020/12/22 02:58:34;;;;;;;0.60;0.60;;;12.40;99.90;;;;;;4943194;28;20508;-92
2020/12/22 03:01:01;;;;;;;0.60;0.40;;;12.40;99.90;;;;;;4944143;28;21022;-92
2020/12/22 03:03:27;;;;;;;1.00;0.40;;;12.50;99.90;;;;;;4944567;28;21005;-91
2020/12/22 03:05:55;;;;;;;0.80;0.60;;;12.50;99.90;;;;;;4947238;28;20457;-92
2020/12/22 03:08:22;;;;;;;0.60;0.40;;;12.50;99.90;;;;;;4940769;28;20445;-92
2020/12/22 03:10:48;;;;;;;1.00;0.50;;;12.40;99.90;;;;;;4944990;28;21029;-93
2020/12/22 03:13:15;;;;;;;0.60;0.50;;;12.40;99.90;;;;;;4944794;28;21128;-92
2020/12/22 03:15:41;;;;;;;0.63;0.47;;;12.40;99.90;;;;;;4945616;29;20449;-93
2020/12/22 03:18:07;;;;;;;1.20;0.57;;;12.40;99.90;;;;;;4942173;29;20449;-92
2020/12/22 03:20:34;;;;;;;1.07;0.60;;;12.30;99.90;;;;;;4946545;28;20889;-93
2020/12/22 03:23:00;;;;;;;0.80;0.33;;;12.40;99.90;;;;;;4947271;28;20574;-93
2020/12/22 03:25:26;;;;;;;0.70;0.50;;;12.40;99.90;;;;;;4946817;29;20477;-92
2020/12/22 03:27:52;;;;;;;0.80;0.60;;;12.50;99.90;;;;;;4945873;28;20457;-92
2020/12/22 03:30:19;;;;;;;0.70;0.60;;;12.60;99.90;;;;;;4945068;29;20462;-93
2020/12/22 03:32:46;;;;;;;0.50;0.30;;;12.60;99.90;;;;;;4944949;29;20514;-92
2020/12/22 03:35:13;;;;;;;1.07;0.40;;;12.50;99.90;;;;;;4950732;28;20439;-93
2020/12/22 03:37:40;;;;;;;0.80;0.50;;;12.50;99.90;;;;;;4939795;28;20489;-91
2020/12/22 03:40:08;;;;;;;1.17;0.40;;;12.60;99.90;;;;;;4953154;29;20494;-92
2020/12/22 03:42:35;;;;;;;1.57;0.50;;;12.60;99.90;;;;;;4947623;28;20479;-93
2020/12/22 03:45:01;;;;;;;0.70;0.50;;;12.60;99.90;;;;;;4947611;29;20470;-91
2020/12/22 03:47:28;;;;;;;0.70;0.50;;;12.60;99.90;;;;;;4946049;29;20493;-92
2020/12/22 03:49:54;;;;;;;1.60;0.50;;;12.50;99.90;;;;;;4947192;29;20504;-92
2020/12/22 03:52:20;;;;;;;1.17;0.60;;;12.50;99.90;;;;;;4944814;29;20485;-92
2020/12/22 03:54:47;;;;;;;0.60;0.40;;;12.50;99.90;;;;;;4945766;29;20441;-92
2020/12/22 03:57:14;;;;;;;1.13;0.60;;;12.60;99.90;;;;;;4941574;28;20603;-91
2020/12/22 03:59:41;;;;;;;1.33;0.50;;;12.60;99.90;;;;;;4945638;28;20471;-92
2020/12/22 04:02:07;;;;;;;1.50;0.50;;;12.60;99.90;;;;;;4944103;28;20491;-91
2020/12/22 04:04:34;;;;;;;0.50;0.40;;;12.60;99.90;;;;;;4944203;28;20536;-91
2020/12/22 04:07:01;;;;;;;0.80;0.70;;;12.60;99.90;;;;;;4946808;28;20452;-92
2020/12/22 04:09:27;;;;;;;0.50;0.30;;;12.60;99.90;;;;;;4943532;28;20441;-91
2020/12/22 04:11:53;;;;;;;0.73;0.60;;;12.60;99.90;;;;;;4944802;29;20464;-92
2020/12/22 04:14:21;;;;;;;0.60;0.60;;;12.60;99.90;;;;;;4946510;28;20448;-92
2020/12/22 04:16:48;;;;;;;0.93;0.57;;;12.60;99.90;;;;;;4943731;29;20451;-91
2020/12/22 04:19:15;;;;;;;1.63;0.40;;;12.60;99.90;;;;;;4943551;28;20454;-92
2020/12/22 04:21:42;;;;;;;1.43;0.50;;;12.70;99.90;;;;;;4942448;28;20487;-92
2020/12/22 04:24:08;;;;;;;0.80;0.63;;;12.70;99.90;;;;;;4939647;28;21025;-92
2020/12/22 04:26:35;;;;;;;0.67;0.50;;;12.70;99.90;;;;;;4941895;29;20852;-92
2020/12/22 04:29:01;;;;;;;0.57;0.37;;;12.70;99.90;;;;;;4963369;28;20440;-92
2020/12/22 04:31:28;;;;;;;0.50;0.40;;;12.80;99.90;;;;;;4952378;28;20532;-92
2020/12/22 04:33:56;;;;;;;0.70;0.40;;;12.80;99.90;;;;;;4944140;28;20445;-92
2020/12/22 04:36:23;;;;;;;0.67;0.57;;;12.80;99.90;;;;;;4944409;28;20442;-92
2020/12/22 04:38:50;;;;;;;0.70;0.60;;;12.70;99.90;;;;;;4942988;29;20451;-93
2020/12/22 04:41:19;;;;;;;1.80;0.40;;;12.70;99.90;;;;;;4946398;28;20524;-92
2020/12/22 04:43:46;;;;;;;2.60;0.50;;;12.80;99.90;;;;;;4946595;28;20444;-93
2020/12/22 04:46:17;;;;;;;0.60;0.40;;;12.80;99.90;;;;;;4946010;29;20469;-93
2020/12/22 04:48:47;;;;;;;0.57;0.40;;;12.70;99.90;;;;;;4948527;28;20449;-91
2020/12/22 04:51:13;;;;;;;0.90;0.40;;;12.80;99.90;;;;;;4945053;28;20468;-93
2020/12/22 04:53:40;;;;;;;0.50;0.50;;;12.80;99.90;;;;;;4941061;29;20434;-93
2020/12/22 04:56:08;;;;;;;0.70;0.40;;;12.80;99.90;;;;;;4943248;29;20476;-92
2020/12/22 04:58:35;;;;;;;1.20;0.50;;;12.80;99.90;;;;;;4944660;29;20449;-92
2020/12/22 05:01:02;;;;;;;2.10;0.70;;;12.80;99.90;;;;;;4941120;28;20532;-91
2020/12/22 05:03:28;;;;;;;1.23;0.60;;;12.80;99.90;;;;;;4943752;29;20449;-92
2020/12/22 05:05:55;;;;;;;0.77;0.50;;;12.80;99.90;;;;;;4943675;28;20487;-94
2020/12/22 05:08:22;;;;;;;1.10;0.40;;;12.80;99.90;;;;;;4938521;28;20446;-94
2020/12/22 05:10:50;;;;;;;0.67;0.47;;;12.80;99.90;;;;;;4941162;28;20465;-92
2020/12/22 05:13:19;;;;;;;0.80;0.43;;;12.90;99.90;;;;;;4947055;28;20948;-93
2020/12/22 05:15:48;;;;;;;0.90;0.50;;;12.90;99.90;;;;;;4946371;29;20939;-93
2020/12/22 05:18:15;;;;;;;0.60;0.40;;;12.90;99.90;;;;;;4945593;28;20528;-94
2020/12/22 05:20:42;;;;;;;0.80;0.50;;;12.90;99.90;;;;;;4944663;29;20518;-92
2020/12/22 05:23:13;;;;;;;1.00;0.60;;;12.90;99.90;;;;;;4943654;29;20477;-92
2020/12/22 05:25:41;;;;;;;0.70;0.60;;;12.90;99.90;;;;;;4944501;28;20483;-92
2020/12/22 05:28:08;;;;;;;0.90;0.50;;;12.90;99.90;;;;;;4943558;29;20514;-92
2020/12/22 05:30:38;;;;;;;0.50;0.40;;;12.90;99.90;;;;;;4943327;28;20560;-92
2020/12/22 05:33:05;;;;;;;2.20;0.40;;;12.90;99.90;;;;;;4943153;28;20507;-93
2020/12/22 05:35:37;;;;;;;0.57;0.40;;;12.90;99.90;;;;;;4944335;28;20458;-92
2020/12/22 05:38:05;;;;;;;0.50;0.33;;;12.90;99.90;;;;;;4943174;28;20832;-92
2020/12/22 05:40:31;;;;;;;0.87;0.40;;;13.00;99.90;;;;;;4943695;28;20538;-92
2020/12/22 05:42:58;;;;;;;1.23;0.50;;;12.90;99.90;;;;;;4945047;29;20450;-92
2020/12/22 05:45:24;;;;;;;2.70;0.57;;;12.90;99.90;;;;;;4942445;29;20563;-92
2020/12/22 05:47:54;;;;;;;0.60;0.30;;;12.90;99.90;;;;;;4942008;29;20440;-92
2020/12/22 05:50:22;;;;;;;0.80;0.47;;;13.00;99.90;;;;;;4940173;28;20537;-93
2020/12/22 05:52:52;;;;;;;0.80;0.47;;;13.00;99.90;;;;;;4939872;28;20441;-94
2020/12/22 05:55:26;;;;;;;1.03;0.30;;;12.90;99.90;;;;;;4942590;28;20449;-92
2020/12/22 05:58:07;;;;;;;0.60;0.30;;;12.90;99.90;;;;;;4934143;29;20463;-92
2020/12/22 06:00:34;;;;;;;0.67;0.40;;;13.00;99.90;;;;;;4943135;28;20492;-93
2020/12/22 06:03:06;;;;;;;0.60;0.40;;;13.00;99.90;;;;;;4940837;29;20461;-93
2020/12/22 06:05:36;;;;;;;1.00;0.60;;;13.10;99.90;;;;;;4942685;28;20536;-93
2020/12/22 06:08:04;;;;;;;0.50;0.30;;;13.20;99.90;;;;;;4941665;28;20477;-92
2020/12/22 06:10:30;;;;;;;1.20;0.70;;;13.30;99.90;;;;;;4939852;29;20462;-93
2020/12/22 06:12:58;;;;;;;1.37;1.27;;;13.20;99.90;;;;;;4942046;29;20438;-92
2020/12/22 06:15:25;;;;;;;1.57;0.60;;;13.20;99.90;;;;;;4940450;29;20444;-93
2020/12/22 06:17:52;;;;;;;0.70;0.50;;;13.20;99.90;;;;;;4940078;29;21022;-93
2020/12/22 06:20:21;;;;;;;0.60;0.40;;;13.20;99.90;;;;;;4943804;28;20447;-92
2020/12/22 06:22:48;;;;;;;1.60;0.57;;;13.30;99.90;;;;;;4941001;29;20447;-92
2020/12/22 06:25:19;;;;;;;0.93;0.50;;;13.30;99.90;;;;;;4941247;29;20493;-92
2020/12/22 06:27:45;;;;;;;1.10;0.50;;;13.40;99.90;;;;;;4940668;28;20480;-92
2020/12/22 06:30:13;;;;;;;0.70;0.60;;;13.30;99.90;;;;;;4941171;28;20457;-92
2020/12/22 06:32:40;;;;;;;0.67;0.50;;;13.30;99.90;;;;;;4940131;28;20442;-91
2020/12/22 06:35:27;;;;;;;1.63;0.53;;;13.30;99.90;;;;;;4941119;29;20458;-91
2020/12/22 06:37:55;;;;;;;0.73;0.50;;;13.40;99.90;;;;;;4954452;28;20450;-92
2020/12/22 06:40:54;;;;;;;0.60;0.50;;;13.40;99.90;;;;;;4953805;28;20454;-92
2020/12/22 06:43:39;;;;;;;0.90;0.50;;;13.40;99.90;;;;;;4939946;28;20949;-92
2020/12/22 06:46:08;;;;;;;0.67;0.50;;;13.40;99.90;;;;;;4943947;28;20494;-92
2020/12/22 06:48:44;;;;;;;1.73;0.40;;;13.40;99.90;;;;;;4944606;28;20538;-93
2020/12/22 06:51:29;;;;;;;0.50;0.40;;;13.40;99.90;;;;;;4943791;28;20471;-91
2020/12/22 06:53:56;;;;;;;2.77;0.67;;;13.40;99.90;;;;;;4944043;28;20990;-93
2020/12/22 06:56:42;;;;;;;0.80;0.40;;;13.50;99.90;;;;;;4944801;28;20503;-91
2020/12/22 06:59:10;;;;;;;1.33;0.43;;;13.50;99.90;;;;;;4944162;28;21172;-91
2020/12/22 07:01:38;;;;;;;0.70;0.40;;;13.50;99.90;;;;;;4946159;28;20470;-91
2020/12/22 07:04:20;;;;;;;1.33;0.60;;;13.40;99.90;;;;;;4942044;28;20459;-92
2020/12/22 07:06:58;;;;;;;1.20;0.60;;;13.50;99.90;;;;;;4946702;28;20433;-91
2020/12/22 07:09:27;;;;;;;2.80;0.47;;;13.40;99.90;;;;;;4948240;29;20456;-91
2020/12/22 07:11:56;;;;;;;0.63;0.40;;;13.50;99.90;;;;;;4946839;28;20973;-91
2020/12/22 07:14:24;;;;;;;0.67;0.40;;;13.50;99.90;;;;;;4940850;28;20449;-92
2020/12/22 07:16:55;;;;;;;1.10;0.60;;;13.50;99.90;;;;;;4941997;28;20476;-92
2020/12/22 07:19:29;;;;;;;3.17;0.73;;;13.50;99.90;;;;;;4946177;28;20451;-92
2020/12/22 07:21:57;;;;;;;0.70;0.57;;;13.50;99.90;;;;;;4936841;29;20546;-92
2020/12/22 07:24:26;;;;;;;0.93;0.70;;;13.60;99.90;;;;;;4945723;29;20484;-91
2020/12/22 07:26:52;;;;;;;0.50;0.40;;;13.60;99.90;;;;;;4944318;28;20794;-92
2020/12/22 07:29:19;;;;;;;1.30;0.50;;;13.70;99.90;;;;;;4942428;28;20455;-92
2020/12/22 07:31:46;;;;;;;0.80;0.60;;;13.70;99.90;;;;;;4944966;28;20469;-93
2020/12/22 07:34:13;;;;;;;1.43;0.73;;;13.70;99.90;;;;;;4944253;28;20834;-93
2020/12/22 07:36:40;;;;;;;0.67;0.50;;;13.70;99.90;;;;;;4943243;28;20445;-93
2020/12/22 07:39:22;;;;;;;1.37;0.70;;;13.70;99.90;;;;;;4942622;29;20474;-92
2020/12/22 07:41:50;;;;;;;1.37;0.70;;;13.80;99.90;;;;;;4945134;28;21070;-93
2020/12/22 07:44:17;;;;;;;0.70;0.50;;;13.80;99.90;;;;;;4943885;29;20490;-91
2020/12/22 07:46:46;;;;;;;0.87;0.80;;;13.80;99.90;;;;;;4944997;29;20466;-93
2020/12/22 07:49:13;;;;;;;0.60;0.50;;;13.90;99.90;;;;;;4943938;28;20452;-93
2020/12/22 07:51:42;;;;;;;0.60;0.40;;;13.90;99.90;;;;;;4945978;28;21223;-92
2020/12/22 07:54:09;;;;;;;0.50;0.37;;;13.90;99.90;;;;;;4942450;29;20456;-91
2020/12/22 07:56:38;;;;;;;0.63;0.57;;;13.90;99.90;;;;;;4945695;28;20447;-92
2020/12/22 07:59:05;;;;;;;0.70;0.43;;;13.90;99.90;;;;;;4943808;28;20455;-92
2020/12/22 08:01:36;;;;;;;1.60;0.63;;;13.90;99.90;;;;;;4946561;28;20870;-92
2020/12/22 08:04:14;;;;;;;1.27;0.70;;;13.90;99.90;;;;;;4942594;28;20941;-91
2020/12/22 08:06:41;;;;;;;0.90;0.43;;;13.90;99.90;;;;;;4942673;28;20498;-89
2020/12/22 08:09:07;;;;;;;0.60;0.47;;;14.00;99.90;;;;;;4944644;28;20448;-92
2020/12/22 08:11:35;;;;;;;0.73;0.43;;;14.00;99.90;;;;;;4941500;29;20531;-92
2020/12/22 08:14:04;;;;;;;0.87;0.60;;;14.10;99.90;;;;;;4947914;28;20510;-92
2020/12/22 08:16:33;;;;;;;0.60;0.50;;;14.10;99.90;;;;;;4944575;29;20450;-90
2020/12/22 08:18:59;;;;;;;1.33;0.50;;;14.10;99.90;;;;;;4941943;28;20476;-92
2020/12/22 08:21:26;;;;;;;0.50;0.40;;;14.10;99.90;;;;;;4949131;29;21074;-93
2020/12/22 08:23:53;;;;;;;0.50;0.40;;;14.10;99.90;;;;;;4946615;28;20430;-84
2020/12/22 08:26:20;;;;;;;2.07;0.90;;;14.20;99.90;;;;;;4943341;28;20485;-86
2020/12/22 08:28:54;;;;;;;0.70;0.60;;;14.20;99.90;;;;;;4944069;29;20448;-87
2020/12/22 08:31:24;;;;;;;0.77;0.40;;;14.20;99.90;;;;;;4942425;28;20473;-86
2020/12/22 08:33:56;;;;;;;0.73;0.63;;;14.20;99.90;;;;;;4944457;29;20503;-86
2020/12/22 08:36:27;;;;;;;0.67;0.43;;;14.20;99.90;;;;;;4942425;29;20452;-86
2020/12/22 08:39:10;;;;;;;0.50;0.40;;;14.20;99.90;;;;;;4941480;28;20823;-87
2020/12/22 08:41:37;;;;;;;1.63;0.80;;;14.20;99.90;;;;;;4944561;28;20468;-87
2020/12/22 08:44:05;;;;;;;1.53;0.50;;;14.10;99.90;;;;;;4943925;28;20449;-86
2020/12/22 08:46:32;;;;;;;0.50;0.40;;;14.20;99.90;;;;;;4945598;29;20466;-86
2020/12/22 08:49:07;;;;;;;1.50;0.50;;;14.20;99.90;;;;;;4954895;28;20988;-86
2020/12/22 08:51:33;;;;;;;0.80;0.50;;;14.20;99.90;;;;;;4945240;28;20508;-86
2020/12/22 08:54:02;;;;;;;2.33;0.50;;;14.20;99.90;;;;;;4944208;28;20535;-86
2020/12/22 08:56:28;;;;;;;1.10;0.80;;;14.30;99.90;;;;;;4943589;28;20455;-88
2020/12/22 08:58:57;;;;;;;3.20;0.60;;;14.30;99.90;;;;;;4946307;28;20449;-87
2020/12/22 09:01:25;;;;;;;1.90;0.67;;;14.30;99.90;;;;;;4945018;28;20479;-88
2020/12/22 09:03:54;;;;;;;0.80;0.50;;;14.40;99.90;;;;;;4943578;28;20456;-87
2020/12/22 09:06:32;;;;;;;1.10;0.50;;;14.50;99.90;;;;;;4945151;28;20488;-87
2020/12/22 09:09:03;;;;;;;1.17;1.00;;;14.40;99.90;;;;;;4944074;28;20531;-87
2020/12/22 09:11:29;;;;;;;0.50;0.40;;;14.40;99.90;;;;;;4944604;28;20480;-87
2020/12/22 09:14:04;;;;;;;1.33;0.50;;;14.40;99.90;;;;;;4946060;28;20453;-87
2020/12/22 09:16:53;;;;;;;1.10;0.60;;;14.40;99.90;;;;;;4944833;28;20522;-87
2020/12/22 09:19:22;;;;;;;0.80;0.53;;;14.30;99.90;;;;;;4941324;29;20457;-87
2020/12/22 09:21:57;;;;;;;1.67;0.90;;;14.40;99.90;;;;;;4940886;29;21023;-87
2020/12/22 09:24:24;;;;;;;0.97;0.70;;;14.30;99.90;;;;;;4940667;29;20931;-87
2020/12/22 09:27:01;;;;;;;1.47;0.50;;;14.30;99.90;;;;;;4943849;29;20475;-88
2020/12/22 09:29:28;;;;;;;1.07;0.80;;;14.30;99.90;;;;;;4941929;29;20452;-87
2020/12/22 09:31:55;;;;;;;1.10;0.57;;;14.30;99.90;;;;;;4942214;28;20517;-87
2020/12/22 09:34:24;;;;;;;0.60;0.50;;;14.30;99.90;;;;;;4942114;29;20457;-87
2020/12/22 09:36:52;;;;;;;0.73;0.50;;;14.30;99.90;;;;;;4940676;29;20512;-87
2020/12/22 09:39:18;;;;;;;0.97;0.60;;;14.30;99.90;;;;;;4941212;29;20457;-87
2020/12/22 09:41:45;;;;;;;0.50;0.40;;;14.20;99.90;;;;;;4942122;28;20557;-88
2020/12/22 09:44:11;;;;;;;1.50;0.80;;;14.10;99.90;;;;;;4942109;29;20449;-86
2020/12/22 09:46:37;;;;;;;1.97;0.67;;;14.00;99.90;;;;;;4941915;29;20997;-86
2020/12/22 09:49:04;;;;;;;0.80;0.50;;;13.90;99.90;;;;;;4943160;28;20497;-87
2020/12/22 09:51:31;;;;;;;1.30;1.10;;;13.90;99.90;;;;;;4941683;28;20466;-86
2020/12/22 09:53:57;;;;;;;1.03;0.70;;;13.90;99.90;;;;;;4943432;29;20446;-87
2020/12/22 09:56:24;;;;;;;2.17;1.50;;;13.90;99.90;;;;;;4942944;29;20445;-86
2020/12/22 09:58:50;;;;;;;1.43;0.60;;;13.90;99.90;;;;;;4943267;29;20453;-87
2020/12/22 10:01:21;;;;;;;1.53;0.70;;;13.90;99.90;;;;;;4943704;29;20458;-86
2020/12/22 10:03:48;;;;;;;0.80;0.70;;;14.00;99.90;;;;;;4942653;28;20450;-86
2020/12/22 10:06:15;;;;;;;0.70;0.47;;;14.20;99.90;;;;;;4942273;29;20487;-87
2020/12/22 10:08:43;;;;;;;1.00;0.60;;;14.20;99.90;;;;;;4943256;29;20452;-86
2020/12/22 10:11:10;;;;;;;0.80;0.70;;;14.40;99.90;;;;;;4942562;29;20459;-87
2020/12/22 10:13:36;;;;;;;1.50;1.40;;;14.40;99.90;;;;;;4942576;28;20866;-86
2020/12/22 10:16:05;;;;;;;1.20;0.97;;;14.50;99.90;;;;;;4942265;28;20468;-88
2020/12/22 10:18:32;;;;;;;1.10;0.80;;;14.60;99.90;;;;;;4942599;28;20452;-89
2020/12/22 10:21:03;;;;;;;1.03;0.60;;;14.60;99.90;;;;;;4947843;29;20475;-87
2020/12/22 10:23:29;;;;;;;0.80;0.57;;;14.70;99.90;;;;;;4947441;28;20528;-88
2020/12/22 10:25:56;;;;;;;1.73;0.60;;;14.70;99.90;;;;;;4946013;28;21036;-88
2020/12/22 10:28:22;;;;;;;2.70;2.47;;;14.70;99.90;;;;;;4946304;28;20461;-88
2020/12/22 10:30:49;;;;;;;0.70;0.70;;;14.70;99.90;;;;;;4948832;29;20460;-92
2020/12/22 10:33:15;;;;;;;0.57;0.40;;;14.70;99.90;;;;;;4954730;28;20469;-92
2020/12/22 10:35:41;;;;;;;0.83;0.70;;;14.80;99.90;;;;;;4952757;28;20457;-90
2020/12/22 10:38:07;;;;;;;0.93;0.80;;;14.80;99.90;;;;;;4952709;29;20444;-90
2020/12/22 10:40:34;;;;;;;1.43;0.50;;;14.80;99.90;;;;;;4949608;28;20472;-89
2020/12/22 10:43:01;;;;;;;1.03;0.63;;;14.80;99.90;;;;;;4946893;29;20448;-88
2020/12/22 10:45:28;;;;;;;0.80;0.50;;;14.80;99.90;;;;;;4946274;29;20485;-89
2020/12/22 10:47:54;;;;;;;2.30;0.70;;;14.90;99.90;;;;;;4946037;29;20532;-90
2020/12/22 10:50:20;;;;;;;0.83;0.50;;;14.90;99.90;;;;;;4946265;29;20518;-91
2020/12/22 10:52:46;;;;;;;0.70;0.50;;;14.90;99.90;;;;;;4947994;28;20448;-89
2020/12/22 10:55:13;;;;;;;1.87;0.70;;;14.80;99.90;;;;;;4947318;29;20446;-91
2020/12/22 10:57:39;;;;;;;1.50;0.50;;;14.80;99.90;;;;;;4946170;28;20436;-90
2020/12/22 11:00:06;;;;;;;0.80;0.50;;;14.80;99.90;;;;;;4958824;29;20440;-90
2020/12/22 11:02:33;;;;;;;0.87;0.63;;;14.80;99.90;;;;;;4960718;29;20471;-90
2020/12/22 11:04:59;;;;;;;0.67;0.47;;;14.80;99.90;;;;;;4944716;28;20492;-91
2020/12/22 11:07:28;;;;;;;0.83;0.60;;;14.80;99.90;;;;;;4942668;29;20445;-90
2020/12/22 11:09:54;;;;;;;0.83;0.60;;;14.80;99.90;;;;;;4944862;29;20476;-90
2020/12/22 11:12:20;;;;;;;0.80;0.50;;;14.90;99.90;;;;;;4940987;29;20478;-91
2020/12/22 11:14:47;;;;;;;0.93;0.63;;;14.90;99.90;;;;;;4945576;29;20452;-90
2020/12/22 11:17:14;;;;;;;0.70;0.50;;;14.90;99.90;;;;;;4945458;29;20445;-90
2020/12/22 11:19:41;;;;;;;1.80;0.60;;;14.90;99.90;;;;;;4943326;28;20938;-90
2020/12/22 11:22:11;;;;;;;1.03;0.70;;;15.00;99.90;;;;;;4947937;29;20480;-91
2020/12/22 11:24:43;;;;;;;1.07;0.70;;;15.00;99.90;;;;;;4946318;28;20921;-91
2020/12/22 11:27:09;;;;;;;1.20;0.60;;;15.00;99.90;;;;;;4946308;29;20982;-91
2020/12/22 11:29:36;;;;;;;0.80;0.63;;;15.00;99.90;;;;;;4947413;28;20513;-91
2020/12/22 11:32:02;;;;;;;1.13;0.80;;;15.00;99.90;;;;;;4942626;28;20994;-88
2020/12/22 11:34:32;;;;;;;0.90;0.60;;;15.00;99.90;;;;;;4939492;29;20450;-89
2020/12/22 11:36:58;;;;;;;0.70;0.70;;;15.00;99.90;;;;;;4941488;28;20449;-88
2020/12/22 11:39:24;;;;;;;1.50;0.60;;;15.00;99.90;;;;;;4942899;29;20521;-90
2020/12/22 11:41:51;;;;;;;0.80;0.60;;;14.90;99.90;;;;;;4935468;29;20615;-90
2020/12/22 11:44:17;;;;;;;1.10;0.60;;;14.90;99.90;;;;;;4935990;29;20517;-90
2020/12/22 11:46:45;;;;;;;0.97;0.77;;;15.00;99.90;;;;;;4935452;29;20457;-90
2020/12/22 11:49:14;;;;;;;0.80;0.80;;;14.90;99.90;;;;;;4934312;29;20477;-89
2020/12/22 11:51:41;;;;;;;1.57;0.47;;;14.90;99.90;;;;;;4935587;29;20963;-89
2020/12/22 11:54:07;;;;;;;0.50;0.37;;;14.90;99.90;;;;;;4934719;29;20520;-89
2020/12/22 11:56:33;;;;;;;0.60;0.40;;;14.90;99.90;;;;;;4935437;29;20447;-89
2020/12/22 11:58:59;;;;;;;0.70;0.50;;;14.80;99.90;;;;;;4935271;29;20450;-89
2020/12/22 12:01:26;;;;;;;0.70;0.50;;;14.90;99.90;;;;;;4934927;29;20477;-90
2020/12/22 12:03:53;;;;;;;0.60;0.53;;;14.90;99.90;;;;;;4935198;29;20450;-89
2020/12/22 12:06:19;;;;;;;1.60;1.30;;;15.00;99.90;;;;;;4934573;29;20486;-89
2020/12/22 12:08:46;;;;;;;0.67;0.50;;;15.00;99.90;;;;;;4935254;29;20453;-89
2020/12/22 12:11:13;;;;;;;1.67;0.70;;;15.00;99.90;;;;;;4934653;29;20481;-89
2020/12/22 12:13:39;;;;;;;0.80;0.60;;;15.20;99.90;;;;;;4935043;29;20442;-89
2020/12/22 12:16:05;;;;;;;1.77;0.90;;;15.30;99.90;;;;;;4933558;29;20454;-89
2020/12/22 12:18:31;;;;;;;0.80;0.63;;;15.50;99.90;;;;;;4934771;29;20450;-91
2020/12/22 12:20:58;;;;;;;0.80;0.60;;;15.60;99.90;;;;;;4934068;29;20465;-89
2020/12/22 12:23:24;;;;;;;2.00;0.67;;;15.90;99.90;;;;;;4934241;29;20442;-90
2020/12/22 12:25:51;;;;;;;1.00;0.80;;;16.00;99.90;;;;;;4933473;29;20481;-89
2020/12/22 12:28:17;;;;;;;1.80;0.90;;;16.00;99.90;;;;;;4933895;29;20465;-90
2020/12/22 12:30:43;;;;;;;0.87;0.63;;;16.00;99.90;;;;;;4934120;29;20473;-89
2020/12/22 12:33:10;;;;;;;1.63;0.60;;;16.00;99.90;;;;;;4933884;29;20504;-90
2020/12/22 12:35:36;;;;;;;0.90;0.60;;;15.80;99.90;;;;;;4932915;29;20509;-87
2020/12/22 12:38:02;;;;;;;1.03;0.90;;;15.70;99.90;;;;;;4931320;29;20465;-89
2020/12/22 12:40:28;;;;;;;1.10;0.63;;;15.80;99.90;;;;;;4935463;29;20474;-90
2020/12/22 12:42:55;;;;;;;1.03;0.70;;;15.70;99.90;;;;;;4932417;29;20446;-89
2020/12/22 12:45:22;;;;;;;0.70;0.50;;;15.80;99.90;;;;;;4930179;29;20575;-89
2020/12/22 12:47:49;;;;;;;0.80;0.50;;;15.60;99.90;;;;;;4933719;29;20473;-89
2020/12/22 12:50:15;;;;;;;0.77;0.50;;;15.60;99.90;;;;;;4933791;29;20851;-88
2020/12/22 12:52:42;;;;;;;1.20;0.90;;;15.50;99.90;;;;;;4930761;29;20458;-90